createdAt,value
2018-03-18T00:02:07.936Z,48.47
2018-03-18T00:04:36.355Z,49.05
2018-03-18T00:07:04.650Z,48.00
2018-03-18T00:09:33.016Z,48.04
2018-03-18T00:12:01.345Z,47.58
2018-03-18T00:14:29.731Z,47.87
2018-03-18T00:16:58.063Z,47.81
2018-03-18T00:19:27.167Z,48.06
2018-03-18T00:21:56.303Z,47.34
2018-03-18T00:24:24.683Z,47.61
2018-03-18T00:26:53.213Z,48.05
2018-03-18T00:29:22.352Z,47.96
2018-03-18T00:31:51.445Z,48.61
2018-03-18T00:34:19.779Z,48.85
2018-03-18T00:36:48.897Z,48.98
2018-03-18T00:39:17.261Z,49.04
2018-03-18T00:41:46.387Z,49.48
2018-03-18T00:44:14.765Z,50.04
2018-03-18T00:46:43.887Z,49.65
2018-03-18T00:49:13.029Z,49.14
2018-03-18T00:52:00.168Z,48.79
2018-03-18T00:54:29.872Z,47.97
2018-03-18T00:56:59.319Z,47.59
2018-03-18T00:59:27.680Z,47.28
2018-03-18T01:01:56.037Z,47.62
2018-03-18T01:04:24.371Z,47.71
2018-03-18T01:06:54.209Z,47.57
2018-03-18T01:09:22.556Z,47.51
2018-03-18T01:11:50.895Z,46.78
2018-03-18T01:14:19.269Z,46.52
2018-03-18T01:16:47.593Z,46.58
2018-03-18T01:19:15.996Z,47.04
2018-03-18T01:21:45.102Z,47.30
2018-03-18T01:24:13.424Z,47.61
2018-03-18T01:26:41.800Z,48.00
2018-03-18T01:29:10.115Z,47.74
2018-03-18T01:31:39.216Z,48.08
2018-03-18T01:34:08.709Z,47.64
2018-03-18T01:36:37.827Z,47.01
2018-03-18T01:39:06.123Z,46.89
2018-03-18T01:41:34.490Z,47.51
2018-03-18T01:44:02.836Z,47.87
2018-03-18T01:46:31.972Z,47.14
2018-03-18T01:49:00.356Z,47.29
2018-03-18T01:51:28.721Z,47.93
2018-03-18T01:53:57.100Z,48.19
2018-03-18T01:56:26.244Z,48.12
2018-03-18T01:58:54.566Z,48.80
2018-03-18T02:01:22.889Z,47.55
2018-03-18T02:03:51.253Z,46.90
2018-03-18T02:06:19.571Z,47.00
2018-03-18T02:08:48.704Z,46.18
2018-03-18T02:11:17.040Z,46.33
2018-03-18T02:13:45.396Z,46.70
2018-03-18T02:16:13.742Z,47.48
2018-03-18T02:18:42.106Z,47.26
2018-03-18T02:21:10.444Z,47.82
2018-03-18T02:23:38.784Z,47.86
2018-03-18T02:26:07.549Z,46.26
2018-03-18T02:28:35.904Z,47.19
2018-03-18T02:31:05.046Z,46.54
2018-03-18T02:33:33.387Z,46.70
2018-03-18T02:36:02.522Z,46.91
2018-03-18T02:38:30.861Z,46.46
2018-03-18T02:40:59.229Z,46.94
2018-03-18T02:43:28.337Z,46.11
2018-03-18T02:45:56.708Z,46.65
2018-03-18T02:48:26.399Z,46.29
2018-03-18T02:50:55.526Z,45.98
2018-03-18T02:53:23.869Z,45.89
2018-03-18T02:55:52.212Z,45.64
2018-03-18T02:58:20.572Z,45.32
2018-03-18T03:00:48.902Z,46.43
2018-03-18T03:03:17.251Z,45.56
2018-03-18T03:05:45.584Z,45.86
2018-03-18T03:08:13.926Z,45.51
2018-03-18T03:10:43.014Z,46.01
2018-03-18T03:13:11.368Z,45.71
2018-03-18T03:15:39.699Z,45.22
2018-03-18T03:18:08.828Z,45.38
2018-03-18T03:20:37.180Z,46.29
2018-03-18T03:23:06.320Z,46.42
2018-03-18T03:25:34.660Z,46.53
2018-03-18T03:28:03.037Z,46.68
2018-03-18T03:30:31.427Z,47.00
2018-03-18T03:32:59.769Z,46.56
2018-03-18T03:35:28.128Z,46.82
2018-03-18T03:37:56.477Z,47.13
2018-03-18T03:40:24.840Z,46.30
2018-03-18T03:42:53.212Z,46.64
2018-03-18T03:45:21.530Z,46.08
2018-03-18T03:47:49.900Z,45.67
2018-03-18T03:50:18.256Z,47.14
2018-03-18T03:52:46.606Z,46.45
2018-03-18T03:55:14.960Z,47.44
2018-03-18T03:57:43.315Z,47.89
2018-03-18T04:00:12.404Z,47.20
2018-03-18T04:02:41.137Z,46.88
2018-03-18T04:05:10.252Z,46.79
2018-03-18T04:07:38.573Z,46.54
2018-03-18T04:10:06.937Z,46.88
2018-03-18T04:12:35.250Z,46.97
2018-03-18T04:15:03.611Z,46.83
2018-03-18T04:17:31.942Z,47.32
2018-03-18T04:20:00.295Z,46.47
2018-03-18T04:22:29.392Z,47.07
2018-03-18T04:24:58.520Z,47.06
2018-03-18T04:27:26.860Z,47.44
2018-03-18T04:29:55.610Z,46.90
2018-03-18T04:32:23.987Z,47.13
2018-03-18T04:34:52.320Z,47.13
2018-03-18T04:37:20.655Z,47.47
2018-03-18T04:39:49.032Z,47.04
2018-03-18T04:42:17.387Z,47.70
2018-03-18T04:44:45.727Z,46.98
2018-03-18T04:47:14.867Z,47.35
2018-03-18T04:49:43.203Z,47.51
2018-03-18T04:52:11.556Z,47.23
2018-03-18T04:54:40.695Z,46.95
2018-03-18T04:57:09.037Z,48.01
2018-03-18T04:59:38.163Z,47.44
2018-03-18T05:02:06.518Z,47.31
2018-03-18T05:04:36.560Z,47.78
2018-03-18T05:07:04.913Z,47.16
2018-03-18T05:09:33.242Z,47.52
2018-03-18T05:12:01.609Z,47.84
2018-03-18T05:14:29.957Z,47.63
2018-03-18T05:16:58.306Z,48.48
2018-03-18T05:19:27.390Z,47.13
2018-03-18T05:21:55.732Z,46.84
2018-03-18T05:24:24.052Z,47.45
2018-03-18T05:26:52.401Z,47.19
2018-03-18T05:29:21.480Z,47.95
2018-03-18T05:31:49.834Z,46.83
2018-03-18T05:34:18.177Z,47.48
2018-03-18T05:36:46.531Z,47.45
2018-03-18T05:39:14.861Z,47.36
2018-03-18T05:41:43.987Z,47.58
2018-03-18T05:44:12.346Z,47.63
2018-03-18T05:46:40.673Z,46.42
2018-03-18T05:49:09.051Z,46.25
2018-03-18T05:51:37.407Z,46.28
2018-03-18T05:54:05.757Z,45.82
2018-03-18T05:56:34.520Z,46.13
2018-03-18T05:59:03.634Z,46.10
2018-03-18T06:01:32.004Z,46.05
2018-03-18T06:04:01.103Z,46.12
2018-03-18T06:06:29.470Z,46.10
2018-03-18T06:08:58.578Z,46.00
2018-03-18T06:11:26.975Z,45.53
2018-03-18T06:13:55.319Z,46.15
2018-03-18T06:16:24.395Z,46.11
2018-03-18T06:18:52.773Z,44.83
2018-03-18T06:21:21.128Z,45.04
2018-03-18T06:23:49.498Z,45.28
2018-03-18T06:26:17.850Z,44.91
2018-03-18T06:28:46.199Z,44.21
2018-03-18T06:31:15.323Z,43.97
2018-03-18T06:33:43.686Z,43.79
2018-03-18T06:36:12.033Z,43.59
2018-03-18T06:38:41.134Z,43.60
2018-03-18T06:41:09.472Z,44.21
2018-03-18T06:43:37.786Z,43.30
2018-03-18T06:46:06.133Z,43.49
2018-03-18T06:48:34.468Z,43.02
2018-03-18T06:51:02.829Z,43.06
2018-03-18T06:53:31.924Z,42.97
2018-03-18T06:56:01.040Z,42.38
2018-03-18T06:58:29.382Z,42.51
2018-03-18T07:00:57.735Z,42.40
2018-03-18T07:03:26.149Z,43.12
2018-03-18T07:05:54.555Z,42.80
2018-03-18T07:08:23.394Z,42.13
2018-03-18T07:10:51.768Z,42.98
2018-03-18T07:13:20.142Z,42.28
2018-03-18T07:15:48.473Z,41.69
2018-03-18T07:18:16.814Z,42.09
2018-03-18T07:20:45.209Z,42.02
2018-03-18T07:23:13.626Z,42.37
2018-03-18T07:25:41.967Z,41.82
2018-03-18T07:28:11.090Z,42.53
2018-03-18T07:30:39.434Z,41.85
2018-03-18T07:33:07.840Z,40.87
2018-03-18T07:35:36.124Z,41.36
2018-03-18T07:38:04.502Z,40.60
2018-03-18T07:40:34.728Z,40.15
2018-03-18T07:43:03.105Z,39.86
2018-03-18T07:45:31.453Z,40.28
2018-03-18T07:48:00.580Z,40.16
2018-03-18T07:50:28.992Z,40.55
2018-03-18T07:52:57.273Z,40.53
2018-03-18T07:55:25.639Z,40.05
2018-03-18T07:57:53.979Z,40.30
2018-03-18T08:00:22.401Z,41.03
2018-03-18T08:02:50.749Z,40.08
2018-03-18T08:05:19.129Z,40.23
2018-03-18T08:07:47.468Z,39.40
2018-03-18T08:10:16.990Z,38.63
2018-03-18T08:12:45.320Z,38.60
2018-03-18T08:15:13.652Z,38.23
2018-03-18T08:17:42.030Z,38.08
2018-03-18T08:20:10.973Z,38.23
2018-03-18T08:22:39.353Z,38.57
2018-03-18T08:25:09.197Z,38.32
2018-03-18T08:27:37.568Z,38.27
2018-03-18T08:30:06.718Z,38.52
2018-03-18T08:32:35.062Z,37.42
2018-03-18T08:35:04.206Z,36.84
2018-03-18T08:37:32.537Z,37.88
2018-03-18T08:40:02.061Z,36.71
2018-03-18T08:42:30.792Z,36.80
2018-03-18T08:44:59.900Z,37.14
2018-03-18T08:47:29.034Z,37.45
2018-03-18T08:49:57.770Z,37.28
2018-03-18T08:52:26.611Z,37.73
2018-03-18T08:54:55.085Z,37.37
2018-03-18T08:57:23.454Z,36.73
2018-03-18T08:59:52.044Z,35.85
2018-03-18T09:02:20.760Z,36.17
2018-03-18T09:04:49.109Z,36.47
2018-03-18T09:07:18.707Z,35.91
2018-03-18T09:09:47.075Z,35.82
2018-03-18T09:12:15.468Z,35.45
2018-03-18T09:14:43.832Z,35.19
2018-03-18T09:17:12.187Z,34.85
2018-03-18T09:19:40.548Z,35.47
2018-03-18T09:22:08.904Z,35.19
2018-03-18T09:24:37.286Z,34.86
2018-03-18T09:27:05.644Z,35.12
2018-03-18T09:29:33.969Z,34.06
2018-03-18T09:32:02.327Z,34.01
2018-03-18T09:34:30.640Z,34.18
2018-03-18T09:36:59.785Z,35.00
2018-03-18T09:39:28.149Z,34.41
2018-03-18T09:41:56.499Z,34.37
2018-03-18T09:44:25.640Z,34.20
2018-03-18T09:46:53.989Z,34.70
2018-03-18T09:49:22.333Z,33.15
2018-03-18T09:51:50.663Z,33.80
2018-03-18T09:54:18.995Z,33.90
2018-03-18T09:56:48.124Z,34.34
2018-03-18T09:59:16.757Z,33.23
2018-03-18T10:01:45.899Z,32.16
2018-03-18T10:04:14.281Z,32.77
2018-03-18T10:06:42.669Z,33.38
2018-03-18T10:09:11.227Z,33.89
2018-03-18T10:11:39.574Z,33.21
2018-03-18T10:14:07.999Z,32.13
2018-03-18T10:16:36.311Z,32.50
2018-03-18T10:19:04.662Z,32.87
2018-03-18T10:21:32.997Z,32.90
2018-03-18T10:24:02.167Z,32.62
2018-03-18T10:26:30.508Z,32.90
2018-03-18T10:28:58.851Z,31.79
2018-03-18T10:31:27.960Z,31.22
2018-03-18T10:33:56.321Z,31.09
2018-03-18T10:36:25.461Z,31.38
2018-03-18T10:38:53.824Z,31.79
2018-03-18T10:41:22.331Z,30.69
2018-03-18T10:43:50.677Z,31.06
2018-03-18T10:46:19.814Z,31.42
2018-03-18T10:48:48.183Z,31.36
2018-03-18T10:51:16.834Z,30.81
2018-03-18T10:53:45.386Z,30.22
2018-03-18T10:56:13.768Z,30.76
2018-03-18T10:58:42.963Z,30.88
2018-03-18T11:01:17.919Z,30.54
2018-03-18T11:03:47.024Z,30.94
2018-03-18T11:06:15.379Z,29.90
2018-03-18T11:08:44.713Z,30.33
2018-03-18T11:11:13.051Z,31.19
2018-03-18T11:13:41.388Z,30.47
2018-03-18T11:16:09.847Z,30.80
2018-03-18T11:18:41.526Z,29.74
2018-03-18T11:21:09.878Z,29.92
2018-03-18T11:23:38.545Z,29.72
2018-03-18T11:26:06.899Z,30.95
2018-03-18T11:28:36.346Z,30.62
2018-03-18T11:31:05.528Z,29.45
2018-03-18T11:33:33.911Z,29.53
2018-03-18T11:36:02.250Z,30.60
2018-03-18T11:38:32.128Z,31.08
2018-03-18T11:41:00.473Z,30.84
2018-03-18T11:43:28.879Z,30.19
2018-03-18T11:45:57.476Z,30.85
2018-03-18T11:48:26.096Z,30.43
2018-03-18T11:50:55.548Z,29.30
2018-03-18T11:53:27.013Z,29.75
2018-03-18T11:55:55.717Z,30.13
2018-03-18T11:58:24.393Z,29.42
2018-03-18T12:00:52.970Z,30.03
2018-03-18T12:03:22.302Z,30.77
2018-03-18T12:05:55.163Z,31.01
2018-03-18T12:08:41.274Z,31.40
2018-03-18T12:11:10.639Z,30.07
2018-03-18T12:13:39.060Z,29.85
2018-03-18T12:16:08.220Z,31.18
2018-03-18T12:18:37.369Z,30.38
2018-03-18T12:21:06.770Z,29.76
2018-03-18T12:23:35.500Z,30.66
2018-03-18T12:26:09.678Z,30.17
2018-03-18T12:28:38.207Z,29.92
2018-03-18T12:31:06.598Z,30.97
2018-03-18T12:33:46.762Z,30.72
2018-03-18T12:36:16.067Z,30.26
2018-03-18T12:38:47.031Z,30.68
2018-03-18T12:41:16.433Z,31.06
2018-03-18T12:43:44.907Z,30.06
2018-03-18T12:46:13.539Z,30.52
2018-03-18T12:48:41.955Z,30.44
2018-03-18T12:51:18.262Z,29.28
2018-03-18T12:53:46.914Z,28.87
2018-03-18T12:56:15.489Z,29.57
2018-03-18T12:58:44.763Z,29.85
2018-03-18T13:01:13.878Z,30.03
2018-03-18T13:03:42.871Z,29.77
2018-03-18T13:06:12.269Z,30.00
2018-03-18T13:08:41.885Z,30.19
2018-03-18T13:11:12.745Z,28.77
2018-03-18T13:13:42.669Z,29.26
2018-03-18T13:16:11.560Z,29.48
2018-03-18T13:18:39.935Z,30.35
2018-03-18T13:21:08.936Z,29.99
2018-03-18T13:23:37.343Z,29.57
2018-03-18T13:26:06.103Z,30.12
2018-03-18T13:28:34.447Z,29.77
2018-03-18T13:31:02.867Z,29.42
2018-03-18T13:33:32.064Z,28.97
2018-03-18T13:36:01.235Z,29.01
2018-03-18T13:38:29.611Z,28.70
2018-03-18T13:43:33.930Z,28.87
2018-03-18T13:46:02.633Z,29.32
2018-03-18T13:48:31.071Z,29.55
2018-03-18T13:50:59.651Z,29.09
2018-03-18T13:53:28.393Z,28.45
2018-03-18T13:55:57.530Z,29.15
2018-03-18T13:58:26.239Z,28.90
2018-03-18T14:00:54.625Z,29.73
2018-03-18T14:03:23.152Z,29.26
2018-03-18T14:05:53.955Z,29.12
2018-03-18T14:08:22.490Z,28.13
2018-03-18T14:10:52.341Z,28.64
2018-03-18T14:13:21.620Z,28.84
2018-03-18T14:15:50.065Z,28.41
2018-03-18T14:18:18.460Z,29.46
2018-03-18T14:20:46.787Z,28.50
2018-03-18T14:23:17.387Z,29.22
2018-03-18T14:25:45.878Z,29.02
2018-03-18T14:28:14.773Z,29.29
2018-03-18T14:30:43.854Z,29.45
2018-03-18T14:33:12.226Z,29.50
2018-03-18T14:35:40.886Z,29.48
2018-03-18T14:38:10.287Z,30.02
2018-03-18T14:40:38.606Z,29.74
2018-03-18T14:43:07.606Z,29.07
2018-03-18T14:45:36.236Z,29.39
2018-03-18T14:48:04.614Z,28.76
2018-03-18T14:50:32.969Z,28.57
2018-03-18T14:53:01.930Z,28.82
2018-03-18T14:55:31.240Z,29.08
2018-03-18T14:58:01.343Z,29.60
2018-03-18T15:00:29.650Z,29.94
2018-03-18T15:02:57.982Z,29.92
2018-03-18T15:05:26.658Z,30.15
2018-03-18T15:07:55.083Z,30.24
2018-03-18T15:10:24.217Z,30.54
2018-03-18T15:12:52.526Z,30.45
2018-03-18T15:15:21.010Z,30.65
2018-03-18T15:17:50.080Z,30.96
2018-03-18T15:20:18.804Z,30.32
2018-03-18T15:22:48.273Z,30.65
2018-03-18T15:25:16.698Z,30.48
2018-03-18T15:27:45.066Z,30.44
2018-03-18T15:30:14.160Z,30.58
2018-03-18T15:32:42.540Z,31.12
2018-03-18T15:35:10.874Z,30.76
2018-03-18T15:37:39.250Z,31.15
2018-03-18T15:40:07.576Z,30.80
2018-03-18T15:42:36.890Z,30.68
2018-03-18T15:45:05.242Z,30.53
2018-03-18T15:47:33.803Z,31.60
2018-03-18T15:50:02.175Z,31.75
2018-03-18T15:52:30.541Z,31.54
2018-03-18T15:54:58.959Z,31.77
2018-03-18T15:57:27.303Z,31.56
2018-03-18T15:59:55.661Z,31.93
2018-03-18T16:02:26.685Z,31.58
2018-03-18T16:04:55.610Z,31.96
2018-03-18T16:07:24.798Z,30.61
2018-03-18T16:09:53.155Z,32.48
2018-03-18T16:12:21.485Z,32.26
2018-03-18T16:14:49.872Z,31.29
2018-03-18T16:17:18.242Z,31.95
2018-03-18T16:19:46.566Z,32.15
2018-03-18T16:22:14.931Z,33.17
2018-03-18T16:24:44.038Z,33.20
2018-03-18T16:27:12.384Z,32.25
2018-03-18T16:29:58.586Z,31.52
2018-03-18T16:32:27.668Z,31.50
2018-03-18T16:34:56.858Z,31.84
2018-03-18T16:37:25.254Z,32.57
2018-03-18T16:39:54.372Z,33.40
2018-03-18T16:42:23.036Z,34.21
2018-03-18T16:44:53.041Z,34.02
2018-03-18T16:47:21.390Z,34.00
2018-03-18T16:49:49.748Z,35.74
2018-03-18T16:52:18.099Z,34.83
2018-03-18T16:54:47.220Z,34.27
2018-03-18T16:57:15.690Z,33.16
2018-03-18T16:59:44.039Z,33.42
2018-03-18T17:02:12.495Z,32.90
2018-03-18T17:04:40.827Z,33.13
2018-03-18T17:07:09.193Z,33.48
2018-03-18T17:09:37.513Z,34.80
2018-03-18T17:12:05.883Z,35.48
2018-03-18T17:14:36.632Z,33.21
2018-03-18T17:17:05.011Z,33.61
2018-03-18T17:19:33.347Z,35.93
2018-03-18T17:22:01.677Z,37.97
2018-03-18T17:24:30.028Z,35.27
2018-03-18T17:26:58.374Z,35.66
2018-03-18T17:29:26.747Z,35.96
2018-03-18T17:31:56.005Z,36.33
2018-03-18T17:34:25.573Z,38.06
2018-03-18T17:36:53.925Z,36.59
2018-03-18T17:39:22.287Z,37.81
2018-03-18T17:41:51.370Z,37.67
2018-03-18T17:44:37.405Z,37.62
2018-03-18T17:47:24.146Z,37.93
2018-03-18T17:50:10.261Z,37.07
2018-03-18T17:52:56.749Z,38.36
2018-03-18T17:55:31.183Z,38.42
2018-03-18T17:57:59.557Z,37.90
2018-03-18T18:00:27.876Z,38.43
2018-03-18T18:02:56.233Z,38.42
2018-03-18T18:05:24.578Z,38.35
2018-03-18T18:07:53.438Z,38.81
2018-03-18T18:10:23.283Z,38.65
2018-03-18T18:12:51.602Z,39.32
2018-03-18T18:15:20.009Z,38.44
2018-03-18T18:17:48.359Z,38.76
2018-03-18T18:20:18.449Z,37.90
2018-03-18T18:22:46.817Z,38.39
2018-03-18T18:25:15.163Z,39.17
2018-03-18T18:27:44.305Z,38.84
2018-03-18T18:30:12.733Z,38.65
2018-03-18T18:32:41.059Z,38.75
2018-03-18T18:35:09.467Z,38.84
2018-03-18T18:37:38.585Z,39.63
2018-03-18T18:40:07.685Z,39.21
2018-03-18T18:42:36.025Z,39.22
2018-03-18T18:45:05.155Z,39.31
2018-03-18T18:47:34.241Z,39.88
2018-03-18T18:50:03.008Z,39.72
2018-03-18T18:52:32.134Z,40.38
2018-03-18T18:55:01.644Z,40.16
2018-03-18T18:57:30.035Z,40.31
2018-03-18T18:59:58.393Z,41.07
2018-03-18T19:02:26.736Z,40.26
2018-03-18T19:04:55.866Z,40.22
2018-03-18T19:07:24.194Z,39.93
2018-03-18T19:09:52.571Z,40.06
2018-03-18T19:12:20.896Z,40.82
2018-03-18T19:14:49.249Z,41.13
2018-03-18T19:17:18.354Z,40.39
2018-03-18T19:19:46.716Z,39.71
2018-03-18T19:22:15.848Z,39.50
2018-03-18T19:24:44.206Z,40.23
2018-03-18T19:27:12.535Z,39.75
2018-03-18T19:29:40.912Z,39.60
2018-03-18T19:32:09.236Z,40.10
2018-03-18T19:34:39.395Z,40.28
2018-03-18T19:37:07.753Z,39.66
2018-03-18T19:39:36.069Z,40.23
2018-03-18T19:42:04.443Z,40.01
2018-03-18T19:44:32.825Z,39.90
2018-03-18T19:47:01.219Z,39.67
2018-03-18T19:49:29.532Z,39.27
2018-03-18T19:51:57.896Z,38.82
2018-03-18T19:54:27.000Z,39.08
2018-03-18T19:56:56.168Z,39.11
2018-03-18T19:59:26.264Z,39.05
2018-03-18T20:01:54.643Z,38.37
2018-03-18T20:04:22.980Z,38.52
2018-03-18T20:06:53.071Z,38.46
2018-03-18T20:09:22.778Z,39.17
2018-03-18T20:11:51.921Z,38.15
2018-03-18T20:14:20.256Z,38.82
2018-03-18T20:16:49.459Z,38.34
2018-03-18T20:19:19.315Z,38.34
2018-03-18T20:21:47.675Z,38.07
2018-03-18T20:24:16.009Z,38.36
2018-03-18T20:26:45.148Z,37.93
2018-03-18T20:29:13.480Z,38.59
2018-03-18T20:31:42.584Z,38.08
2018-03-18T20:34:11.666Z,38.46
2018-03-18T20:36:40.100Z,38.60
2018-03-18T20:39:09.046Z,39.17
2018-03-18T20:41:38.191Z,39.28
2018-03-18T20:44:07.181Z,38.58
2018-03-18T20:46:35.556Z,38.99
2018-03-18T20:49:04.688Z,38.80
2018-03-18T20:51:33.528Z,38.69
2018-03-18T20:54:01.891Z,38.85
2018-03-18T20:56:31.256Z,38.76
2018-03-18T20:58:59.633Z,39.09
2018-03-18T21:01:27.947Z,38.97
2018-03-18T21:03:57.083Z,39.11
2018-03-18T21:06:25.482Z,39.30
2018-03-18T21:08:53.833Z,39.84
2018-03-18T21:11:22.180Z,40.91
2018-03-18T21:13:50.506Z,41.03
2018-03-18T21:16:18.879Z,39.56
2018-03-18T21:18:47.644Z,39.21
2018-03-18T21:21:15.985Z,40.33
2018-03-18T21:23:45.544Z,40.25
2018-03-18T21:26:13.899Z,40.13
2018-03-18T21:28:42.213Z,40.86
2018-03-18T21:31:10.574Z,41.06
2018-03-18T21:33:38.895Z,40.20
2018-03-18T21:36:08.035Z,40.61
2018-03-18T21:38:36.359Z,40.61
2018-03-18T21:41:05.500Z,40.64
2018-03-18T21:43:33.846Z,40.53
2018-03-18T21:46:03.014Z,41.31
2018-03-18T21:48:31.364Z,41.38
2018-03-18T21:50:59.673Z,41.95
2018-03-18T21:53:28.036Z,41.77
2018-03-18T21:55:56.412Z,41.25
2018-03-18T21:58:24.754Z,41.09
2018-03-18T22:00:53.088Z,41.17
2018-03-18T22:03:21.398Z,40.92
2018-03-18T22:05:49.808Z,41.12
2018-03-18T22:08:18.166Z,41.85
2018-03-18T22:10:46.487Z,41.88
2018-03-18T22:13:14.849Z,41.56
2018-03-18T22:15:43.189Z,41.85
2018-03-18T22:18:11.519Z,42.44
2018-03-18T22:20:39.875Z,41.89
2018-03-18T22:23:08.210Z,42.73
2018-03-18T22:25:36.614Z,42.87
2018-03-18T22:28:05.739Z,42.54
2018-03-18T22:30:34.051Z,42.59
2018-03-18T22:33:02.415Z,42.60
2018-03-18T22:35:30.793Z,42.32
2018-03-18T22:37:59.231Z,42.94
2018-03-18T22:40:27.553Z,42.29
2018-03-18T22:42:55.882Z,44.36
2018-03-18T22:45:24.253Z,42.48
2018-03-18T22:47:52.578Z,43.03
2018-03-18T22:50:20.923Z,42.84
2018-03-18T22:52:49.351Z,42.90
2018-03-18T22:55:18.496Z,43.48
2018-03-18T22:57:46.846Z,42.78
2018-03-18T23:00:19.093Z,42.87
2018-03-18T23:02:47.451Z,43.51
2018-03-18T23:05:15.759Z,43.65
2018-03-18T23:07:44.862Z,43.21
2018-03-18T23:10:13.962Z,43.81
2018-03-18T23:12:42.316Z,43.87
2018-03-18T23:15:11.408Z,43.89
2018-03-18T23:17:39.780Z,44.03
2018-03-18T23:20:08.117Z,44.13
2018-03-18T23:22:36.466Z,44.01
2018-03-18T23:25:04.835Z,43.98
2018-03-18T23:27:33.923Z,43.46
2018-03-18T23:30:03.090Z,43.04
2018-03-18T23:32:31.412Z,43.27
2018-03-18T23:34:59.779Z,43.61
2018-03-18T23:37:28.869Z,42.91
2018-03-18T23:39:57.213Z,43.08
2018-03-18T23:42:25.594Z,43.64
2018-03-18T23:44:53.922Z,43.83
2018-03-18T23:47:22.262Z,43.83
2018-03-18T23:49:50.634Z,43.63
2018-03-18T23:52:18.999Z,44.33
2018-03-18T23:54:47.330Z,44.39
2018-03-18T23:57:15.681Z,44.48
2018-03-18T23:59:44.667Z,45.12
